Time;durP1;ratioP1;P1;durP2;ratioP2;P2;SDS_P1;SDS_P2;PMS_P1;PMS_P2;Temp;Humidity;BMP_temperature;BMP_pressure;BME280_temperature;BME280_humidity;BME280_pressure;Samples;Min_cycle;Max_cycle;Signal;HPM_P1;HPM_P2
2022/12/28 10:35:32;;;;;;;33.83;25.10;;;;;;;;;;6064934;23;20105;-90
2022/12/28 11:03:44;;;;;;;20.75;15.93;;;;;;;;;;6081877;23;20029;-90
2022/12/28 11:07:24;;;;;;;22.13;16.05;;;;;;;;;;6068429;23;20051;-89
2022/12/28 11:11:03;;;;;;;19.90;15.25;;;;;;;;;;6011075;23;20016;-90
2022/12/28 11:13:47;;;;;;;20.80;14.32;;;;;;;;;;5997785;23;20011;-90
2022/12/28 11:16:24;;;;;;;20.30;13.38;;;;;;;;;;5976765;23;20015;-90
2022/12/28 11:18:53;;;;;;;23.77;12.70;;;;;;;;;;6022112;23;20014;-90
2022/12/28 11:25:03;;;;;;;16.75;11.50;;;;;;;;;;5897007;24;20017;-89
2022/12/28 12:24:56;;;;;;;;;;;;;;;;;;;;;
2022/12/28 12:36:24;;;;;;;12.73;7.57;;;;;;;;;;5980736;24;20087;-93
2022/12/28 12:54:10;;;;;;;15.85;10.52;;;;;;;;;;6096484;23;20022;-91
2022/12/28 12:56:59;;;;;;;19.38;14.00;;;;;;;;;;6071148;23;20023;-91
2022/12/28 13:00:01;;;;;;;20.90;14.57;;;;;;;;;;6024527;23;20086;-91
2022/12/28 13:02:54;;;;;;;;;;;;;;;;;;6026917;23;20014;-91
2022/12/28 13:10:10;;;;;;;20.70;14.80;;;;;;;;;;6096426;23;20026;-92
2022/12/28 13:12:49;;;;;;;22.13;14.45;;;;;;;;;;6037161;23;20038;-91
2022/12/28 13:15:25;;;;;;;25.33;15.02;;;;;;;;;;6001885;23;20093;-92
2022/12/28 13:18:28;;;;;;;20.92;14.23;;;;;;;;;;6026854;23;20014;-91
2022/12/28 13:21:01;;;;;;;18.52;12.88;;;;;;;;;;6015402;23;20019;-91
2022/12/28 13:23:54;;;;;;;19.48;13.40;;;;;;;;;;6028929;23;20010;-91
2022/12/28 13:26:48;;;;;;;18.55;13.45;;;;;;;;;;6052753;23;20010;-92
2022/12/28 13:29:23;;;;;;;19.95;13.90;;;;;;;;;;6023537;23;20060;-90
2022/12/28 13:31:54;;;;;;;18.85;13.30;;;;;;;;;;6001676;23;20010;-91
2022/12/28 13:35:09;;;;;;;21.45;13.00;;;;;;;;;;6001054;23;20011;-92
2022/12/28 13:38:33;;;;;;;18.52;12.07;;;;;;;;;;6047431;23;20053;-93
2022/12/28 13:56:38;;;;;;;16.77;9.35;;;;;;;;;;5924680;24;20021;-92
2022/12/28 13:59:46;;;;;;;14.40;9.88;;;;;;;;;;5924307;24;20032;-91
2022/12/28 14:02:52;;;;;;;12.32;8.60;;;;;;;;;;5884108;24;20056;-91
2022/12/28 14:05:26;;;;;;;14.77;9.80;;;;;;;;;;5901484;24;20052;-91
2022/12/28 14:07:55;;;;;;;13.25;9.40;;;;;;;;;;5857686;24;20351;-91
2022/12/28 14:10:29;;;;;;;12.43;8.75;;;;;;;;;;5879753;24;20154;-91
2022/12/28 14:12:56;;;;;;;13.32;8.35;;;;;;;;;;5880333;24;20052;-90
2022/12/28 14:15:35;;;;;;;15.57;10.20;;;;;;;;;;5936835;23;20012;-92
2022/12/28 14:18:14;;;;;;;17.08;10.90;;;;;;;;;;5991181;23;20090;-91
2022/12/28 14:20:53;;;;;;;15.30;10.68;;;;;;;;;;5990882;23;20027;-90
2022/12/28 14:23:24;;;;;;;19.48;13.25;;;;;;;;;;5945782;23;20063;-90
2022/12/28 14:26:08;;;;;;;23.45;14.85;;;;;;;;;;5945484;23;20424;-91
2022/12/28 14:28:55;;;;;;;23.48;14.85;;;;;;;;;;6017034;23;20012;-92
2022/12/28 14:38:15;;;;;;;25.58;15.27;;;;;;;;;;6084192;23;20026;-92
2022/12/28 14:41:22;;;;;;;24.17;16.00;;;;;;;;;;6049192;23;20053;-91
2022/12/28 14:44:01;;;;;;;27.10;17.08;;;;;;;;;;6074312;23;20077;-91
2022/12/28 14:46:39;;;;;;;25.08;15.80;;;;;;;;;;6051916;23;20014;-91
2022/12/28 14:49:28;;;;;;;22.05;15.40;;;;;;;;;;6048657;23;20010;-91
2022/12/28 14:56:11;;;;;;;22.90;14.68;;;;;;;;;;6069982;23;20462;-91
2022/12/28 14:58:58;;;;;;;23.35;14.90;;;;;;;;;;6070856;23;20014;-90
2022/12/28 15:04:44;;;;;;;22.65;13.43;;;;;;;;;;6067987;23;20022;-91
